Time;durP1;ratioP1;P1;durP2;ratioP2;P2;SDS_P1;SDS_P2;PMS_P1;PMS_P2;Temp;Humidity;BMP_temperature;BMP_pressure;BME280_temperature;BME280_humidity;BME280_pressure;Samples;Min_cycle;Max_cycle;Signal;HPM_P1;HPM_P2
2022/01/01 00:02:09;;;;;;;96.00;43.00;;;;;;;4.08;63.42;100282.11;117349;1185;21849;-59
2022/01/01 00:04:58;;;;;;;83.20;38.10;;;;;;;4.09;63.39;100285.25;117314;1185;21894;-59
2022/01/01 00:07:26;;;;;;;74.60;35.10;;;;;;;4.11;63.24;100281.96;117235;1186;23566;-60
2022/01/01 00:09:55;;;;;;;109.90;40.20;;;;;;;4.12;63.40;100280.95;117342;1184;23634;-59
2022/01/01 00:12:28;;;;;;;93.00;38.00;;;;;;;4.13;63.33;100283.23;117342;1184;22643;-61
2022/01/01 00:14:58;;;;;;;69.00;33.70;;;;;;;4.13;63.49;100280.79;117361;1184;23449;-61
2022/01/01 00:17:26;;;;;;;113.20;38.20;;;;;;;4.16;63.19;100279.79;117391;1184;21929;-61
2022/01/01 00:19:54;;;;;;;84.00;33.30;;;;;;;4.22;63.18;100281.75;117387;1180;21854;-61
2022/01/01 00:22:23;;;;;;;98.10;36.00;;;;;;;4.23;63.18;100280.02;117381;1184;23516;-61
2022/01/01 00:24:51;;;;;;;110.00;37.20;;;;;;;4.23;63.13;100279.69;117332;1182;21845;-60
2022/01/01 00:27:19;;;;;;;115.20;34.70;;;;;;;4.25;63.34;100281.45;117335;1181;22972;-59
2022/01/01 00:29:47;;;;;;;108.10;34.80;;;;;;;4.27;63.36;100283.21;117380;1185;23449;-60
2022/01/01 00:32:15;;;;;;;106.70;32.80;;;;;;;4.29;63.12;100280.97;117351;1184;24229;-60
2022/01/01 00:34:43;;;;;;;133.90;34.40;;;;;;;4.30;63.19;100276.48;117305;1181;22902;-59
2022/01/01 00:37:11;;;;;;;72.70;28.60;;;;;;;4.30;63.10;100275.43;117383;1184;23449;-60
2022/01/01 00:39:40;;;;;;;140.50;29.30;;;;;;;4.31;63.16;100274.39;117320;1186;23476;-60
2022/01/01 00:42:08;;;;;;;118.70;27.20;;;;;;;4.31;63.09;100273.54;117291;1181;23446;-60
2022/01/01 00:44:36;;;;;;;121.00;26.10;;;;;;;4.32;63.23;100273.73;117328;1185;21852;-60
2022/01/01 00:47:05;;;;;;;114.70;25.90;;;;;;;4.35;63.34;100271.66;117359;1185;23641;-60
2022/01/01 00:49:33;;;;;;;80.40;24.20;;;;;;;4.33;63.32;100268.34;117359;1185;21856;-61
2022/01/01 00:52:02;;;;;;;104.00;24.60;;;;;;;4.36;63.28;100266.64;117392;1184;22913;-60
2022/01/01 00:54:30;;;;;;;107.50;26.80;;;;;;;4.40;63.30;100261.81;117309;1184;21858;-59
2022/01/01 00:56:59;;;;;;;66.60;22.50;;;;;;;4.43;63.43;100257.51;117367;1185;21855;-60
2022/01/01 00:59:29;;;;;;;130.70;24.80;;;;;;;4.49;63.29;100255.66;117310;1184;22736;-59
2022/01/01 01:01:58;;;;;;;176.30;26.90;;;;;;;4.53;63.52;100257.96;117332;1185;21913;-60
2022/01/01 01:04:26;;;;;;;72.80;21.30;;;;;;;4.57;63.49;100257.83;117357;1185;21858;-59
2022/01/01 01:06:55;;;;;;;115.30;22.50;;;;;;;4.60;63.51;100250.91;117369;1184;21850;-60
2022/01/01 01:09:23;;;;;;;113.10;23.90;;;;;;;4.63;63.46;100256.33;117375;1185;23138;-61
2022/01/01 01:11:52;;;;;;;75.40;20.80;;;;;;;4.65;63.38;100253.02;117381;1182;21854;-61
2022/01/01 01:14:23;;;;;;;;;;;;;;;4.66;63.48;100249.58;117405;1183;22985;-61
2022/01/01 01:16:54;;;;;;;139.80;24.40;;;;;;;4.66;63.55;100245.91;117348;1186;21951;-60
2022/01/01 01:19:23;;;;;;;107.80;20.70;;;;;;;4.66;63.47;100243.83;117386;1182;22961;-61
2022/01/01 01:21:51;;;;;;;84.20;20.10;;;;;;;4.66;63.40;100240.35;117330;1184;21870;-60
2022/01/01 01:24:23;;;;;;;113.90;22.60;;;;;;;4.65;63.46;100239.65;117313;1185;21855;-59
2022/01/01 01:26:53;;;;;;;127.30;21.10;;;;;;;4.64;63.61;100236.35;117422;1185;21888;-60
2022/01/01 01:29:23;;;;;;;113.10;21.10;;;;;;;4.64;63.29;100234.43;117315;1185;21845;-60
2022/01/01 01:31:52;;;;;;;102.60;19.50;;;;;;;4.64;63.51;100225.91;117328;1184;23449;-59
2022/01/01 01:34:20;;;;;;;120.00;19.70;;;;;;;4.64;63.37;100224.52;117282;1186;23578;-61
2022/01/01 01:36:54;;;;;;;107.90;19.50;;;;;;;4.67;63.30;100221.59;117313;1185;23448;-60
2022/01/01 01:39:22;;;;;;;57.60;19.10;;;;;;;4.68;63.40;100218.64;117371;1185;21857;-61
2022/01/01 01:41:52;;;;;;;105.50;23.00;;;;;;;4.72;63.53;100213.64;117354;1184;23555;-61
2022/01/01 01:44:33;;;;;;;56.10;18.60;;;;;;;4.76;63.63;100210.90;117226;1186;21923;-61
2022/01/01 01:47:02;;;;;;;86.40;22.80;;;;;;;4.82;63.40;100201.05;117408;1176;21878;-59
2022/01/01 01:49:30;;;;;;;106.80;22.20;;;;;;;4.88;63.31;100199.35;117315;1185;23555;-62
2022/01/01 01:51:59;;;;;;;165.30;29.00;;;;;;;4.94;63.62;100193.83;117347;1185;21855;-59
2022/01/01 01:54:27;;;;;;;62.90;26.60;;;;;;;4.99;63.65;100188.66;117302;1185;21854;-59
2022/01/01 01:56:56;;;;;;;41.90;23.70;;;;;;;5.06;63.40;100182.29;117178;1186;23636;-62
2022/01/01 01:59:24;;;;;;;35.80;21.70;;;;;;;5.11;63.49;100180.56;117346;1185;22626;-62
2022/01/01 02:01:52;;;;;;;49.10;27.10;;;;;;;5.15;63.25;100177.11;117128;1187;23406;-60
2022/01/01 02:04:23;;;;;;;47.70;26.20;;;;;;;5.18;63.28;100175.05;117319;1182;21874;-59
2022/01/01 02:06:51;;;;;;;46.70;26.10;;;;;;;5.19;63.34;100174.71;117366;1182;22643;-61
2022/01/01 02:09:19;;;;;;;48.20;27.00;;;;;;;5.24;63.35;100175.27;117133;1187;23449;-59
2022/01/01 02:11:48;;;;;;;59.50;29.40;;;;;;;5.28;63.37;100173.55;117357;1184;21842;-61
2022/01/01 02:17:08;;;;;;;45.10;26.60;;;;;;;5.40;63.45;100170.14;117360;1185;23449;-61
2022/01/01 02:20:01;;;;;;;57.00;28.90;;;;;;;5.47;63.44;100171.58;117350;1183;23479;-59
2022/01/01 02:22:39;;;;;;;61.30;29.90;;;;;;;5.54;63.56;100173.51;117354;1185;21845;-59
2022/01/01 02:25:07;;;;;;;57.60;28.70;;;;;;;5.58;63.42;100167.27;117371;1183;21852;-58
2022/01/01 02:27:36;;;;;;;46.50;26.30;;;;;;;5.61;63.47;100167.11;117355;1185;23576;-59
2022/01/01 02:30:06;;;;;;;41.50;20.70;;;;;;;5.62;63.56;100162.94;117355;1184;23297;-59
2022/01/01 02:32:34;;;;;;;60.50;29.50;;;;;;;5.64;63.44;100151.11;117361;1185;21861;-61
2022/01/01 02:35:07;;;;;;;54.90;29.60;;;;;;;5.66;63.64;100147.46;117364;1184;23452;-62
2022/01/01 02:37:36;;;;;;;59.70;30.20;;;;;;;5.68;63.53;100138.27;117273;1186;23584;-58
2022/01/01 02:40:05;;;;;;;51.60;28.00;;;;;;;5.69;63.51;100136.87;117363;1185;21894;-61
2022/01/01 02:42:34;;;;;;;51.90;28.40;;;;;;;5.68;63.37;100137.02;117367;1186;23554;-58
2022/01/01 02:45:07;;;;;;;52.50;28.80;;;;;;;5.63;63.46;100148.48;117375;1181;21936;-61
2022/01/01 02:47:37;;;;;;;53.80;28.40;;;;;;;5.63;63.19;100144.48;117337;1185;22913;-58
2022/01/01 02:50:05;;;;;;;59.10;30.70;;;;;;;5.61;63.38;100142.56;117354;1181;21858;-58
2022/01/01 02:52:35;;;;;;;57.40;29.50;;;;;;;5.58;63.23;100144.47;117371;1185;21841;-62
2022/01/01 02:55:05;;;;;;;58.30;29.20;;;;;;;5.58;63.20;100142.20;117339;1185;23474;-62
2022/01/01 02:57:33;;;;;;;57.10;29.70;;;;;;;5.58;63.19;100143.95;117357;1184;21894;-59
2022/01/01 03:00:04;;;;;;;55.10;30.30;;;;;;;5.58;63.23;100139.59;117358;1185;21859;-59
2022/01/01 03:02:32;;;;;;;48.80;25.60;;;;;;;5.56;63.17;100146.72;117366;1185;21854;-63
2022/01/01 03:05:00;;;;;;;51.60;27.20;;;;;;;5.55;63.22;100142.54;117327;1184;22843;-63
2022/01/01 03:07:31;;;;;;;51.50;28.50;;;;;;;5.56;63.21;100142.19;117363;1182;23469;-59
2022/01/01 03:09:59;;;;;;;47.70;27.30;;;;;;;5.59;63.27;100137.16;117317;1186;22804;-59
2022/01/01 03:12:27;;;;;;;50.70;28.00;;;;;;;5.61;63.46;100135.08;117378;1184;23471;-62
2022/01/01 03:14:55;;;;;;;57.40;28.40;;;;;;;5.62;63.48;100135.60;117378;1184;21854;-63
2022/01/01 03:17:25;;;;;;;60.40;28.60;;;;;;;5.61;63.43;100134.20;117318;1186;21854;-61
2022/01/01 03:19:53;;;;;;;50.70;28.90;;;;;;;5.64;63.44;100130.39;117394;1185;22055;-62
2022/01/01 03:22:21;;;;;;;56.70;29.50;;;;;;;5.67;63.29;100128.84;118181;1185;21825;-59
2022/01/01 03:24:49;;;;;;;51.30;27.80;;;;;;;5.71;63.52;100124.16;119399;1184;21763;-64
2022/01/01 03:27:17;;;;;;;43.20;25.80;;;;;;;5.74;63.57;100128.87;118031;1185;21844;-63
2022/01/01 03:29:46;;;;;;;47.40;25.60;;;;;;;5.77;63.56;100132.69;117311;1185;21848;-59
2022/01/01 03:32:15;;;;;;;43.00;25.80;;;;;;;5.80;63.41;100134.63;117323;1182;21854;-58
2022/01/01 03:34:43;;;;;;;45.40;25.40;;;;;;;5.83;63.66;100137.42;117366;1185;23475;-63
2022/01/01 03:37:12;;;;;;;51.80;27.00;;;;;;;5.84;63.72;100138.30;117408;1184;23237;-63
2022/01/01 03:39:40;;;;;;;54.50;26.60;;;;;;;5.84;63.41;100137.42;117354;1183;23604;-62
2022/01/01 03:42:08;;;;;;;46.90;26.40;;;;;;;5.77;63.26;100134.60;117400;1182;23075;-62
2022/01/01 03:44:36;;;;;;;48.20;27.50;;;;;;;5.75;63.70;100129.03;117398;1185;22885;-62
2022/01/01 03:47:09;;;;;;;46.90;26.50;;;;;;;5.73;63.57;100130.43;117383;1183;21845;-63
2022/01/01 03:49:38;;;;;;;46.60;26.40;;;;;;;5.71;63.49;100132.86;117378;1185;24195;-58
2022/01/01 03:52:07;;;;;;;44.10;25.00;;;;;;;5.69;63.43;100123.98;117372;1176;21979;-58
2022/01/01 03:54:37;;;;;;;52.30;27.10;;;;;;;5.66;63.31;100132.33;117359;1185;23636;-59
2022/01/01 03:57:05;;;;;;;40.10;24.30;;;;;;;5.64;63.52;100127.77;117360;1185;22999;-58
2022/01/01 03:59:33;;;;;;;49.00;27.00;;;;;;;5.62;63.63;100123.41;117362;1185;23634;-64
2022/01/01 04:02:03;;;;;;;43.90;23.60;;;;;;;5.60;63.40;100119.23;117251;1189;22927;-58
2022/01/01 04:04:31;;;;;;;44.00;25.80;;;;;;;5.59;63.50;100115.58;117339;1184;23551;-64
2022/01/01 04:07:01;;;;;;;47.10;26.30;;;;;;;5.58;63.42;100111.22;117378;1185;23544;-64
2022/01/01 04:09:29;;;;;;;47.60;26.10;;;;;;;5.58;63.56;100107.39;117310;1185;23458;-64
2022/01/01 04:11:57;;;;;;;44.10;25.30;;;;;;;5.56;63.60;100101.98;117341;1184;23480;-64
2022/01/01 04:14:25;;;;;;;43.20;25.10;;;;;;;5.55;63.45;100093.80;117373;1184;23596;-58
2022/01/01 04:16:54;;;;;;;47.30;25.80;;;;;;;5.56;63.25;100095.72;117350;1182;23646;-58
2022/01/01 04:19:30;;;;;;;45.00;26.50;;;;;;;5.53;63.37;100097.62;117369;1186;21898;-58
2022/01/01 04:21:58;;;;;;;41.30;23.50;;;;;;;6.08;62.47;100093.44;117317;1185;23455;-62
2022/01/01 04:24:29;;;;;;;43.70;24.90;;;;;;;5.69;62.84;100097.51;117326;1185;21845;-64
2022/01/01 04:26:58;;;;;;;43.00;26.50;;;;;;;5.56;63.20;100097.11;117345;1184;21851;-57
2022/01/01 04:29:27;;;;;;;48.60;25.90;;;;;;;5.54;63.59;100097.79;117320;1182;23523;-64
2022/01/01 07:56:24;;;;;;;34.10;20.80;;;;;;;6.77;63.79;100165.48;117398;1185;21905;-89
2022/01/01 07:58:52;;;;;;;32.40;20.40;;;;;;;6.76;63.58;100160.95;117362;1187;21858;-89
2022/01/01 08:01:20;;;;;;;32.90;19.70;;;;;;;6.74;63.39;100163.39;117365;1187;21884;-89
2022/01/01 08:03:49;;;;;;;38.10;22.40;;;;;;;6.72;63.49;100167.23;117327;1187;21877;-88
2022/01/01 08:06:18;;;;;;;50.80;27.40;;;;;;;6.70;63.84;100169.14;117361;1185;21900;-88
2022/01/01 08:08:46;;;;;;;43.40;24.50;;;;;;;6.69;63.25;100167.40;117515;1182;22950;-89
2022/01/01 08:11:15;;;;;;;37.40;21.90;;;;;;;6.69;63.43;100169.31;117475;1183;22910;-88
2022/01/01 08:13:43;;;;;;;33.10;20.40;;;;;;;6.68;63.70;100169.33;117284;1187;23622;-88
2022/01/01 08:16:11;;;;;;;32.90;20.20;;;;;;;6.69;63.48;100168.45;117477;1184;22992;-88
2022/01/01 08:18:39;;;;;;;29.50;19.40;;;;;;;6.69;63.57;100166.35;117471;1186;22818;-88
2022/01/01 08:21:07;;;;;;;29.30;18.90;;;;;;;6.70;63.60;100171.77;117407;1183;23538;-88
2022/01/01 08:23:35;;;;;;;29.30;18.60;;;;;;;6.71;63.71;100169.32;117351;1187;22907;-88
2022/01/01 08:26:04;;;;;;;26.90;17.10;;;;;;;6.73;63.71;100164.98;117607;1186;22894;-88
2022/01/01 08:28:32;;;;;;;28.60;18.30;;;;;;;6.76;63.60;100164.79;117473;1186;22131;-89
2022/01/01 08:31:00;;;;;;;30.20;18.00;;;;;;;6.80;63.74;100163.91;117395;1188;23631;-89
2022/01/01 08:33:28;;;;;;;28.00;18.50;;;;;;;6.83;63.66;100158.51;117396;1187;23646;-89
2022/01/01 08:35:59;;;;;;;27.30;18.00;;;;;;;6.88;63.99;100162.87;117372;1187;21853;-89
2022/01/01 08:38:27;;;;;;;24.60;15.90;;;;;;;6.91;63.88;100158.66;117309;1187;22306;-88
2022/01/01 08:40:55;;;;;;;25.50;15.40;;;;;;;6.93;63.75;100156.92;117313;1187;22324;-88
2022/01/01 08:43:25;;;;;;;23.20;14.30;;;;;;;6.94;63.85;100161.30;117220;1186;23492;-87
2022/01/01 08:45:53;;;;;;;23.40;15.50;;;;;;;6.94;63.70;100163.20;117408;1182;22986;-87
2022/01/01 08:48:21;;;;;;;23.40;14.60;;;;;;;6.91;63.57;100162.16;117495;1186;22913;-88
2022/01/01 08:50:49;;;;;;;21.00;14.10;;;;;;;6.89;63.47;100160.42;117386;1182;23632;-89
2022/01/01 08:53:17;;;;;;;22.60;15.20;;;;;;;6.87;63.44;100159.20;117243;1188;21856;-86
2022/01/01 08:55:45;;;;;;;22.80;14.90;;;;;;;6.87;63.57;100161.11;117403;1187;22089;-87
2022/01/01 08:58:13;;;;;;;20.10;13.80;;;;;;;6.87;63.60;100159.89;117451;1187;21866;-87
2022/01/01 09:00:53;;;;;;;26.70;15.30;;;;;;;6.88;63.66;100163.03;117395;1184;21853;-87
2022/01/01 09:03:22;;;;;;;21.60;14.90;;;;;;;6.90;64.04;100163.02;117340;1184;23532;-88
2022/01/01 09:05:51;;;;;;;26.20;15.50;;;;;;;6.92;63.78;100165.48;117474;1184;22179;-87
2022/01/01 09:08:39;;;;;;;21.70;13.60;;;;;;;6.94;63.58;100164.09;117378;1183;21912;-88
2022/01/01 09:11:27;;;;;;;19.00;13.80;;;;;;;6.98;63.78;100167.21;117414;1186;23556;-87
2022/01/01 09:13:55;;;;;;;27.40;15.90;;;;;;;7.03;64.05;100171.23;117468;1183;23682;-88
2022/01/01 09:16:29;;;;;;;28.70;16.90;;;;;;;7.08;63.68;100175.40;117393;1186;22637;-88
2022/01/01 09:19:13;;;;;;;23.80;14.60;;;;;;;7.14;63.75;100179.75;117456;1183;23581;-89
2022/01/01 09:22:01;;;;;;;21.30;14.10;;;;;;;7.20;63.94;100179.40;117273;1187;21970;-88
2022/01/01 09:24:30;;;;;;;27.10;16.20;;;;;;;7.25;63.81;100182.89;117318;1187;22281;-88
2022/01/01 09:26:58;;;;;;;26.10;16.00;;;;;;;7.31;63.90;100177.80;117365;1186;21896;-88
2022/01/01 09:29:26;;;;;;;20.80;13.90;;;;;;;7.36;63.99;100173.61;117429;1186;21866;-87
2022/01/01 09:31:54;;;;;;;24.00;14.50;;;;;;;7.41;64.06;100170.81;117410;1186;23446;-88
2022/01/01 09:34:25;;;;;;;21.10;13.90;;;;;;;7.45;64.04;100166.95;117406;1186;21885;-88
2022/01/01 09:36:54;;;;;;;23.50;14.60;;;;;;;7.50;63.99;100164.84;117352;1179;21853;-88
2022/01/01 09:39:24;;;;;;;23.70;14.20;;;;;;;7.53;63.97;100162.73;117381;1187;21896;-88
2022/01/01 09:41:52;;;;;;;20.90;13.50;;;;;;;7.57;63.80;100163.59;117342;1187;21849;-89
2022/01/01 09:44:23;;;;;;;18.90;13.20;;;;;;;7.61;64.01;100165.16;117317;1186;21851;-90
2022/01/01 09:46:52;;;;;;;22.40;14.20;;;;;;;7.65;64.09;100158.34;117378;1186;21874;-89
2022/01/01 09:49:21;;;;;;;24.50;14.70;;;;;;;7.69;63.73;100154.65;117429;1186;21860;-87
2022/01/01 09:51:49;;;;;;;22.60;14.90;;;;;;;7.73;63.99;100150.27;117416;1186;21859;-87
2022/01/01 09:54:18;;;;;;;22.50;14.20;;;;;;;7.78;64.03;100147.97;117374;1178;23460;-87
2022/01/01 09:56:47;;;;;;;20.30;13.20;;;;;;;7.83;63.90;100149.88;117371;1187;21888;-86
2022/01/01 09:59:15;;;;;;;23.30;14.00;;;;;;;7.86;64.09;100149.69;117345;1185;21968;-87
2022/01/01 10:01:43;;;;;;;19.90;13.70;;;;;;;7.88;63.91;100151.77;117375;1186;23375;-86
2022/01/01 10:04:13;;;;;;;22.70;13.60;;;;;;;7.90;63.72;100154.55;117361;1186;22917;-86
2022/01/01 10:06:43;;;;;;;20.30;13.10;;;;;;;7.93;63.82;100154.54;117400;1180;23539;-87
2022/01/01 10:09:16;;;;;;;19.30;13.10;;;;;;;7.94;63.91;100155.94;117437;1183;22977;-87
2022/01/01 10:11:44;;;;;;;20.90;13.60;;;;;;;7.95;63.85;100160.13;117346;1187;21859;-87
2022/01/01 10:14:38;;;;;;;22.20;13.80;;;;;;;7.94;64.06;100159.79;117318;1187;22315;-88
2022/01/01 10:17:27;;;;;;;19.20;12.60;;;;;;;7.92;63.97;100160.84;117372;1186;23540;-87
2022/01/01 10:19:58;;;;;;;19.70;13.40;;;;;;;7.90;63.64;100158.23;117403;1186;23554;-87
2022/01/01 10:22:27;;;;;;;17.70;11.80;;;;;;;7.83;63.98;100160.35;117357;1186;23585;-88
2022/01/01 10:28:01;;;;;;;20.30;14.50;;;;;;;7.74;63.83;100156.36;117326;1186;21869;-87
2022/01/01 10:30:43;;;;;;;19.00;12.80;;;;;;;7.72;64.02;100152.37;117340;1187;21873;-87
2022/01/01 10:33:16;;;;;;;19.30;13.10;;;;;;;7.81;64.07;100156.17;117302;1187;22197;-87
2022/01/01 10:35:50;;;;;;;20.60;13.60;;;;;;;7.87;63.96;100153.52;117401;1186;21852;-86
2022/01/01 10:38:19;;;;;;;24.10;15.20;;;;;;;7.90;63.84;100152.64;117399;1183;23578;-88
2022/01/01 10:40:54;;;;;;;18.90;13.40;;;;;;;7.93;63.91;100153.51;117497;1186;23540;-89
2022/01/01 10:43:23;;;;;;;22.20;14.50;;;;;;;7.85;63.89;100155.27;117238;1186;22931;-88
2022/01/01 10:45:51;;;;;;;19.60;13.70;;;;;;;7.83;63.90;100156.52;117310;1186;22275;-88
2022/01/01 10:48:27;;;;;;;23.90;14.10;;;;;;;7.88;63.92;100158.23;117424;1186;22625;-86
2022/01/01 10:50:56;;;;;;;22.90;14.30;;;;;;;7.81;64.04;100154.59;117410;1186;22142;-88
2022/01/01 10:53:27;;;;;;;19.50;13.10;;;;;;;7.76;64.13;100157.42;117393;1186;23550;-86
2022/01/01 10:55:57;;;;;;;19.30;13.10;;;;;;;7.72;63.91;100158.66;117514;1186;21863;-86
2022/01/01 10:58:29;;;;;;;;;;;;;;;7.70;64.25;100154.13;117457;1186;21834;-88
2022/01/01 11:01:05;;;;;;;20.70;14.70;;;;;;;7.70;64.18;100150.98;117351;1182;21888;-89
2022/01/01 11:03:38;;;;;;;24.60;16.60;;;;;;;7.70;64.06;100152.21;117359;1187;22311;-86
2022/01/01 11:06:08;;;;;;;23.10;14.70;;;;;;;7.72;64.27;100158.13;117315;1187;22917;-85
2022/01/01 11:08:40;;;;;;;21.70;14.30;;;;;;;7.76;64.13;100166.14;117371;1183;22039;-86
2022/01/01 11:11:10;;;;;;;24.70;15.20;;;;;;;7.78;64.05;100162.82;117564;1187;21978;-86
2022/01/01 11:13:41;;;;;;;19.80;13.70;;;;;;;7.79;64.24;100154.95;117610;1186;22917;-86
2022/01/01 11:16:09;;;;;;;16.10;12.00;;;;;;;7.78;64.28;100149.55;117411;1186;23599;-86
2022/01/01 11:18:44;;;;;;;17.50;12.60;;;;;;;7.78;64.10;100145.52;117162;1182;23566;-87
2022/01/01 11:21:13;;;;;;;20.20;15.50;;;;;;;7.80;63.99;100148.30;117179;1188;21861;-87
2022/01/01 11:23:41;;;;;;;20.30;14.00;;;;;;;7.82;64.24;100148.83;117265;1186;23682;-88
2022/01/01 11:26:09;;;;;;;25.20;15.90;;;;;;;7.83;64.33;100150.76;117304;1186;21909;-88
2022/01/01 11:28:37;;;;;;;23.60;15.00;;;;;;;7.81;64.23;100149.53;117427;1186;21864;-87
2022/01/01 11:31:08;;;;;;;20.40;13.90;;;;;;;7.82;63.92;100147.08;117426;1186;21845;-88
2022/01/01 11:33:41;;;;;;;19.00;13.20;;;;;;;7.83;64.27;100144.45;117396;1186;23440;-87
2022/01/01 11:36:23;;;;;;;19.20;12.90;;;;;;;7.85;64.11;100144.10;117424;1186;21860;-88
2022/01/01 11:38:52;;;;;;;25.20;16.60;;;;;;;7.86;64.26;100144.63;117342;1187;21871;-88
2022/01/01 11:41:22;;;;;;;31.60;21.40;;;;;;;7.87;64.25;100145.14;117291;1186;23545;-89
2022/01/01 11:43:52;;;;;;;37.70;26.90;;;;;;;7.89;64.22;100143.73;117307;1187;22638;-87
2022/01/01 11:46:21;;;;;;;30.20;21.60;;;;;;;7.93;64.17;100148.80;117430;1186;21843;-88
2022/01/01 11:48:51;;;;;;;26.90;18.50;;;;;;;7.95;64.10;100150.69;117466;1186;21874;-87
2022/01/01 11:51:20;;;;;;;21.50;15.10;;;;;;;7.97;64.19;100150.49;117440;1186;21889;-86
2022/01/01 11:54:07;;;;;;;18.00;13.50;;;;;;;7.98;64.16;100150.14;117135;1189;23646;-87
2022/01/01 11:56:51;;;;;;;18.70;14.00;;;;;;;8.24;63.64;100132.68;117370;1187;23542;-87
2022/01/01 11:59:20;;;;;;;17.20;12.20;;;;;;;8.48;63.22;100136.38;117211;1189;22915;-87
2022/01/01 12:01:49;;;;;;;13.40;10.90;;;;;;;8.46;63.19;100142.34;117214;1186;22461;-88
2022/01/01 12:04:27;;;;;;;17.70;12.20;;;;;;;8.07;63.99;100147.48;117525;1186;21853;-87
2022/01/01 12:07:17;;;;;;;15.50;11.70;;;;;;;8.00;63.99;100147.86;117545;1183;21848;-87
2022/01/01 12:10:01;;;;;;;15.60;11.00;;;;;;;7.95;64.02;100160.65;117423;1186;21868;-86
2022/01/01 12:12:42;;;;;;;18.10;12.90;;;;;;;7.91;64.08;100166.61;117352;1187;23544;-88
2022/01/01 12:15:22;;;;;;;16.30;12.90;;;;;;;7.89;64.10;100169.76;117317;1186;22931;-87
2022/01/01 12:17:57;;;;;;;18.30;15.60;;;;;;;7.87;64.13;100165.58;117437;1186;22905;-87
2022/01/01 12:21:01;;;;;;;19.10;15.10;;;;;;;7.86;64.14;100164.88;117485;1186;21864;-87
2022/01/01 12:23:37;;;;;;;17.90;12.50;;;;;;;7.82;64.15;100167.52;117438;1186;22917;-87
2022/01/01 12:26:08;;;;;;;16.60;11.50;;;;;;;7.83;64.23;100168.22;117509;1182;22216;-86
2022/01/01 12:28:37;;;;;;;14.30;11.20;;;;;;;7.83;64.07;100171.19;117299;1186;21980;-86
2022/01/01 12:31:13;;;;;;;11.70;9.80;;;;;;;7.87;64.19;100172.21;117351;1186;23550;-86
2022/01/01 12:34:00;;;;;;;13.60;10.10;;;;;;;7.88;64.16;100172.57;117282;1179;22308;-87
2022/01/01 12:36:31;;;;;;;12.40;9.70;;;;;;;7.90;64.28;100168.72;117359;1186;21904;-88
2022/01/01 12:39:00;;;;;;;11.70;9.20;;;;;;;7.92;64.28;100165.73;117592;1184;21859;-87
2022/01/01 12:41:37;;;;;;;13.90;9.80;;;;;;;7.94;64.27;100164.85;117530;1185;22287;-87
2022/01/01 12:44:07;;;;;;;12.70;10.30;;;;;;;7.96;64.34;100158.20;117238;1186;21874;-87
2022/01/01 12:46:37;;;;;;;13.90;10.20;;;;;;;7.95;64.14;100162.05;117493;1186;22413;-86
2022/01/01 12:49:06;;;;;;;14.40;11.00;;;;;;;7.94;64.28;100160.31;117390;1178;23459;-87
2022/01/01 12:51:37;;;;;;;12.60;9.90;;;;;;;7.92;64.16;100161.02;117451;1186;21876;-87
2022/01/01 12:54:11;;;;;;;12.90;10.00;;;;;;;7.92;64.28;100170.63;117182;1188;21874;-88
2022/01/01 12:56:42;;;;;;;13.30;10.90;;;;;;;7.89;64.27;100167.66;117316;1186;23594;-87
2022/01/01 12:59:11;;;;;;;13.40;10.70;;;;;;;7.90;64.07;100172.04;117491;1186;22097;-88
2022/01/01 13:01:42;;;;;;;14.00;11.40;;;;;;;7.88;64.25;100171.34;117463;1186;23541;-87
2022/01/01 13:04:11;;;;;;;19.00;16.50;;;;;;;7.88;64.05;100179.90;117324;1185;22915;-87
2022/01/01 13:06:41;;;;;;;19.60;17.10;;;;;;;7.90;64.30;100179.38;117384;1186;23467;-88
2022/01/01 13:09:13;;;;;;;30.10;23.60;;;;;;;7.88;64.02;100176.92;117279;1186;21855;-86
2022/01/01 13:11:42;;;;;;;33.30;24.60;;;;;;;7.86;64.04;100176.06;117381;1186;21863;-87
2022/01/01 13:14:12;;;;;;;36.70;24.80;;;;;;;7.82;64.21;100180.97;117409;1185;22144;-86
2022/01/01 13:16:40;;;;;;;41.10;26.30;;;;;;;7.80;64.27;100180.45;117417;1186;23592;-86
2022/01/01 13:19:10;;;;;;;34.80;24.20;;;;;;;7.79;64.22;100189.71;117180;1186;22955;-86
2022/01/01 13:21:40;;;;;;;32.40;21.80;;;;;;;7.78;64.26;100191.29;117152;1189;23578;-82
2022/01/01 13:24:10;;;;;;;33.20;22.80;;;;;;;7.79;64.16;100197.40;117080;1179;23544;-82
2022/01/01 13:26:39;;;;;;;30.60;22.20;;;;;;;7.78;64.13;100199.50;117294;1186;21890;-82
2022/01/01 13:29:07;;;;;;;27.70;17.40;;;;;;;7.76;64.13;100199.51;117313;1186;21885;-86
2022/01/01 13:31:36;;;;;;;20.10;15.70;;;;;;;7.73;64.10;100205.11;117084;1185;23636;-85
2022/01/01 13:34:10;;;;;;;20.40;14.70;;;;;;;7.71;64.07;100215.95;117044;1188;23538;-85
2022/01/01 13:36:39;;;;;;;17.10;13.50;;;;;;;7.68;63.94;100225.23;117312;1186;21857;-85
2022/01/01 13:39:25;;;;;;;13.80;11.60;;;;;;;7.65;64.08;100229.94;117420;1182;23541;-86
2022/01/01 13:41:55;;;;;;;18.90;16.30;;;;;;;7.63;64.07;100233.79;117387;1186;23548;-86
2022/01/01 13:44:31;;;;;;;17.50;13.50;;;;;;;7.62;64.10;100237.61;117377;1185;21882;-86
2022/01/01 13:47:14;;;;;;;16.20;12.20;;;;;;;7.61;64.20;100240.42;117323;1185;23539;-85
2022/01/01 13:49:44;;;;;;;13.90;11.20;;;;;;;7.60;64.23;100243.56;117309;1186;22926;-86
2022/01/01 13:52:30;;;;;;;14.50;11.90;;;;;;;7.60;64.07;100239.04;117215;1188;21861;-86
2022/01/01 13:55:03;;;;;;;14.60;11.80;;;;;;;7.61;64.12;100241.30;117470;1187;24167;-86
2022/01/01 13:57:32;;;;;;;17.70;12.40;;;;;;;7.60;64.07;100248.64;117391;1182;21890;-87
2022/01/01 14:00:00;;;;;;;15.50;12.30;;;;;;;7.59;64.00;100250.55;117394;1187;21843;-88
2022/01/01 14:02:29;;;;;;;16.00;12.00;;;;;;;7.62;64.01;100254.56;117543;1183;21877;-86
2022/01/01 14:05:01;;;;;;;13.50;11.60;;;;;;;7.62;64.12;100254.40;117650;1185;23451;-87
2022/01/01 14:07:31;;;;;;;13.10;10.90;;;;;;;7.63;64.09;100251.95;117622;1186;23632;-87
2022/01/01 14:10:01;;;;;;;12.90;10.80;;;;;;;7.63;64.08;100254.21;117403;1188;23633;-86
2022/01/01 14:12:34;;;;;;;14.70;10.80;;;;;;;7.62;63.99;100258.23;117436;1186;22932;-87
2022/01/01 14:15:12;;;;;;;13.60;10.50;;;;;;;7.60;63.95;100265.75;117582;1185;21870;-86
2022/01/01 14:18:07;;;;;;;13.00;9.90;;;;;;;7.60;64.26;100265.05;117553;1185;22891;-86
2022/01/01 14:20:51;;;;;;;12.80;10.40;;;;;;;7.61;63.81;100268.36;117574;1185;23537;-86
2022/01/01 14:23:42;;;;;;;13.60;10.50;;;;;;;7.59;64.00;100268.02;117652;1185;23528;-86
2022/01/01 14:26:18;;;;;;;13.10;11.30;;;;;;;7.56;64.01;100275.88;117454;1183;22915;-85
2022/01/01 14:28:48;;;;;;;14.20;11.10;;;;;;;7.55;63.89;100276.05;117438;1185;23553;-86
2022/01/01 14:31:17;;;;;;;13.20;10.80;;;;;;;7.55;64.13;100284.61;117273;1186;21916;-86
2022/01/01 14:33:45;;;;;;;13.20;10.50;;;;;;;7.54;64.03;100286.01;117401;1186;22979;-86
2022/01/01 14:36:13;;;;;;;13.50;10.60;;;;;;;7.55;63.99;100290.20;117309;1186;23548;-86
2022/01/01 14:38:45;;;;;;;14.60;10.90;;;;;;;7.56;64.26;100295.08;117399;1186;22974;-86
2022/01/01 14:41:13;;;;;;;13.60;11.90;;;;;;;7.59;64.03;100292.80;117422;1182;21854;-86
2022/01/01 14:43:43;;;;;;;14.30;11.70;;;;;;;7.62;64.00;100291.41;117350;1187;22951;-86
2022/01/01 14:46:17;;;;;;;13.00;11.00;;;;;;;7.62;64.16;100294.21;117628;1185;23582;-86
2022/01/01 14:49:05;;;;;;;12.20;10.80;;;;;;;7.60;63.93;100296.30;117479;1186;21866;-86
2022/01/01 14:51:49;;;;;;;16.00;12.90;;;;;;;7.57;63.98;100297.70;117434;1185;23633;-85
2022/01/01 14:54:38;;;;;;;14.20;11.60;;;;;;;7.52;63.79;100298.77;117465;1186;21863;-86
2022/01/01 14:57:16;;;;;;;13.10;11.30;;;;;;;7.44;63.69;100304.54;117578;1186;22247;-85
2022/01/01 14:59:45;;;;;;;13.70;11.40;;;;;;;7.36;63.79;100302.78;117372;1186;23018;-86